Time;durP1;ratioP1;P1;durP2;ratioP2;P2;SDS_P1;SDS_P2;PMS_P1;PMS_P2;Temp;Humidity;BMP_temperature;BMP_pressure;BME280_temperature;BME280_humidity;BME280_pressure;Samples;Min_cycle;Max_cycle;Signal;HPM_P1;HPM_P2
2023/04/03 00:01:00;;;;;;;;;;;5.60;72.50;;;;;;9183995;19;19919;-70
2023/04/03 00:04:04;;;;;;;;;;;5.50;72.40;;;;;;9185123;19;19978;-69
2023/04/03 00:07:12;;;;;;;;;;;5.50;73.10;;;;;;9185783;19;19919;-69
2023/04/03 00:10:16;;;;;;;;;;;5.50;72.50;;;;;;9182615;19;19986;-69
2023/04/03 00:13:24;;;;;;;;;;;5.50;72.50;;;;;;9183015;19;19922;-69
2023/04/03 00:16:28;;;;;;;;;;;5.40;72.50;;;;;;9184643;19;20325;-68
2023/04/03 00:19:35;;;;;;;;;;;5.40;72.50;;;;;;9183653;19;19919;-69
2023/04/03 00:22:39;;;;;;;;;;;5.40;72.50;;;;;;9182746;19;19984;-69
2023/04/03 00:25:45;;;;;;;;;;;5.30;72.50;;;;;;9184796;19;19915;-69
2023/04/03 00:28:51;;;;;;;;;;;5.30;72.50;;;;;;9184596;19;19926;-69
2023/04/03 00:31:57;;;;;;;;;;;5.30;72.50;;;;;;9184533;19;19926;-68
2023/04/03 00:35:01;;;;;;;;;;;5.30;72.60;;;;;;9184701;19;19922;-69
2023/04/03 00:38:07;;;;;;;;;;;5.30;72.60;;;;;;9183082;19;19934;-69
2023/04/03 00:41:11;;;;;;;;;;;5.20;72.50;;;;;;9182735;19;19914;-69
2023/04/03 00:44:23;;;;;;;;;;;5.20;72.60;;;;;;9176837;19;19974;-69
2023/04/03 00:47:27;;;;;;;;;;;5.20;72.60;;;;;;9185173;19;19922;-69
2023/04/03 00:50:34;;;;;;;;;;;5.20;72.60;;;;;;9181717;19;19923;-69
2023/04/03 00:54:00;;;;;;;;;;;5.20;72.60;;;;;;9183590;19;19918;-69
2023/04/03 00:57:07;;;;;;;;;;;5.10;72.60;;;;;;9184010;19;20245;-69
2023/04/03 01:00:16;;;;;;;;;;;5.10;72.60;;;;;;9181190;19;19922;-69
2023/04/03 01:03:23;;;;;;;;;;;5.10;72.60;;;;;;9182213;19;20333;-68
2023/04/03 01:06:30;;;;;;;;;;;5.10;72.60;;;;;;9179854;19;20326;-69
2023/04/03 01:09:42;;;;;;;;;;;5.10;72.60;;;;;;9179542;19;20249;-69
2023/04/03 01:12:47;;;;;;;;;;;5.00;72.60;;;;;;9183739;19;19946;-70
2023/04/03 01:15:55;;;;;;;;;;;5.00;72.60;;;;;;9182005;19;19919;-69
2023/04/03 01:18:59;;;;;;;;;;;5.00;72.70;;;;;;9177781;19;19925;-69
2023/04/03 01:22:16;;;;;;;;;;;4.90;72.70;;;;;;9181604;19;19926;-69
2023/04/03 01:25:20;;;;;;;;;;;4.90;72.60;;;;;;9182809;19;19923;-69
2023/04/03 01:28:27;;;;;;;;;;;4.90;72.70;;;;;;9183039;19;20329;-69
2023/04/03 01:31:35;;;;;;;;;;;4.90;72.70;;;;;;9182903;19;19915;-69
2023/04/03 01:34:43;;;;;;;;;;;4.90;72.70;;;;;;9182385;19;19922;-69
2023/04/03 01:37:47;;;;;;;;;;;4.90;72.70;;;;;;9181606;19;20325;-69
2023/04/03 01:40:53;;;;;;;;;;;4.80;72.60;;;;;;9178719;19;19927;-69
2023/04/03 01:43:57;;;;;;;;;;;4.80;72.70;;;;;;9179040;19;19918;-69
2023/04/03 01:47:04;;;;;;;;;;;4.80;72.70;;;;;;9183269;19;19938;-69
2023/04/03 01:50:10;;;;;;;;;;;4.80;72.70;;;;;;9184103;19;19926;-70
2023/04/03 01:53:16;;;;;;;;;;;4.80;72.70;;;;;;9181532;19;20357;-68
2023/04/03 01:56:20;;;;;;;;;;;4.70;72.60;;;;;;9182180;19;19975;-70
2023/04/03 01:59:27;;;;;;;;;;;4.70;72.70;;;;;;9178968;19;19994;-69
2023/04/03 02:02:31;;;;;;;;;;;4.70;72.60;;;;;;9178272;19;19948;-69
2023/04/03 02:05:39;;;;;;;;;;;4.70;72.70;;;;;;9179779;19;20288;-69
2023/04/03 02:08:43;;;;;;;;;;;4.60;72.60;;;;;;9179802;19;19926;-69
2023/04/03 02:11:49;;;;;;;;;;;4.60;72.70;;;;;;9181076;19;20345;-69
2023/04/03 02:14:53;;;;;;;;;;;4.60;72.70;;;;;;9176536;19;19919;-70
2023/04/03 02:17:59;;;;;;;;;;;4.50;72.70;;;;;;9181203;19;19915;-69
2023/04/03 02:21:05;;;;;;;;;;;4.50;72.70;;;;;;9177154;19;19919;-69
2023/04/03 02:24:11;;;;;;;;;;;4.50;72.70;;;;;;9180930;19;19925;-69
2023/04/03 02:27:15;;;;;;;;;;;4.50;72.80;;;;;;9179547;19;19922;-69
2023/04/03 02:30:21;;;;;;;;;;;4.50;72.90;;;;;;9181183;19;19927;-69
2023/04/03 02:33:26;;;;;;;;;;;4.40;72.70;;;;;;9180573;19;19974;-69
2023/04/03 02:36:34;;;;;;;;;;;4.40;72.70;;;;;;9178962;19;20272;-69
2023/04/03 02:39:41;;;;;;;;;;;4.40;72.70;;;;;;9177152;19;19918;-69
2023/04/03 02:42:47;;;;;;;;;;;4.30;72.70;;;;;;9175184;19;19930;-68
2023/04/03 02:45:51;;;;;;;;;;;4.30;72.70;;;;;;9178649;19;20352;-70
2023/04/03 02:48:57;;;;;;;;;;;4.30;72.80;;;;;;9180379;19;19915;-69
2023/04/03 02:52:03;;;;;;;;;;;4.20;72.80;;;;;;9178382;19;20258;-69
2023/04/03 02:55:09;;;;;;;;;;;4.20;72.80;;;;;;9178317;19;19923;-69
2023/04/03 02:58:14;;;;;;;;;;;4.20;72.90;;;;;;9179491;19;19922;-68
2023/04/03 03:01:19;;;;;;;;;;;4.10;72.80;;;;;;9174072;19;19929;-70
2023/04/03 03:04:23;;;;;;;;;;;4.10;72.90;;;;;;9179577;19;19956;-69
2023/04/03 03:07:31;;;;;;;;;;;4.10;72.80;;;;;;9178999;19;19911;-69
2023/04/03 03:10:35;;;;;;;;;;;4.10;72.90;;;;;;9175559;19;19918;-69
2023/04/03 03:13:41;;;;;;;;;;;4.00;72.80;;;;;;9176742;19;19923;-69
2023/04/03 03:16:45;;;;;;;;;;;4.00;72.90;;;;;;9173702;19;19930;-69
2023/04/03 03:19:51;;;;;;;;;;;3.90;72.80;;;;;;9172003;19;19926;-69
2023/04/03 03:22:57;;;;;;;;;;;3.90;72.80;;;;;;9172228;19;19922;-69
2023/04/03 03:26:05;;;;;;;;;;;3.90;72.90;;;;;;9172011;19;20264;-68
2023/04/03 03:29:11;;;;;;;;;;;3.80;72.90;;;;;;9172196;19;20345;-69
2023/04/03 03:32:17;;;;;;;;;;;3.80;72.90;;;;;;9176510;19;19923;-69
2023/04/03 03:35:21;;;;;;;;;;;3.80;72.90;;;;;;9176052;19;20019;-69
2023/04/03 03:38:29;;;;;;;;;;;3.70;72.90;;;;;;9178349;19;20010;-69
2023/04/03 03:41:33;;;;;;;;;;;3.70;73.00;;;;;;9172799;19;19911;-69
2023/04/03 03:44:40;;;;;;;;;;;3.70;73.00;;;;;;9171377;19;19927;-69
2023/04/03 03:47:45;;;;;;;;;;;3.60;72.90;;;;;;9178104;19;19922;-69
2023/04/03 03:50:52;;;;;;;;;;;3.60;73.00;;;;;;9175700;19;19954;-68
2023/04/03 03:54:01;;;;;;;;;;;3.60;73.00;;;;;;9176583;19;19925;-69
2023/04/03 03:57:07;;;;;;;;;;;3.60;73.00;;;;;;9176087;19;19927;-69
2023/04/03 04:00:13;;;;;;;;;;;3.60;73.00;;;;;;9173713;19;19919;-69
2023/04/03 04:03:25;;;;;;;;;;;3.60;73.00;;;;;;9175204;19;19922;-69
2023/04/03 04:06:29;;;;;;;;;;;3.60;73.00;;;;;;9175395;19;20355;-69
2023/04/03 04:09:40;;;;;;;;;;;3.50;73.00;;;;;;9174424;19;19936;-69
2023/04/03 04:12:46;;;;;;;;;;;3.50;73.00;;;;;;9174990;19;19919;-69
2023/04/03 04:15:52;;;;;;;;;;;3.50;73.00;;;;;;9174658;19;19926;-68
2023/04/03 04:18:56;;;;;;;;;;;3.40;72.90;;;;;;9174323;19;19923;-69
2023/04/03 04:22:03;;;;;;;;;;;3.40;73.00;;;;;;9174999;19;20245;-70
2023/04/03 04:25:11;;;;;;;;;;;3.40;72.90;;;;;;9174703;19;19948;-69
2023/04/03 04:28:18;;;;;;;;;;;3.30;73.00;;;;;;9182732;19;19934;-69
2023/04/03 04:31:25;;;;;;;;;;;3.30;73.00;;;;;;9183037;19;19932;-69
2023/04/03 04:34:31;;;;;;;;;;;3.30;73.00;;;;;;9184367;19;19911;-69
2023/04/03 04:37:36;;;;;;;;;;;3.20;73.00;;;;;;9183028;19;19915;-69
2023/04/03 04:40:44;;;;;;;;;;;3.20;73.00;;;;;;9181304;19;19929;-69
2023/04/03 04:43:49;;;;;;;;;;;3.10;73.00;;;;;;9177188;19;19923;-69
2023/04/03 04:46:55;;;;;;;;;;;3.10;73.00;;;;;;9182573;19;20333;-70
2023/04/03 04:49:59;;;;;;;;;;;3.10;73.00;;;;;;9182600;19;19978;-69
2023/04/03 04:53:06;;;;;;;;;;;3.10;73.10;;;;;;9182983;19;19914;-69
2023/04/03 04:56:12;;;;;;;;;;;3.00;73.00;;;;;;9184687;19;19915;-70
2023/04/03 04:59:18;;;;;;;;;;;3.00;73.10;;;;;;9183248;19;20482;-69
2023/04/03 05:02:25;;;;;;;;;;;2.90;73.00;;;;;;9181279;19;19986;-69
2023/04/03 05:05:33;;;;;;;;;;;2.90;73.00;;;;;;9182457;19;19998;-69
2023/04/03 05:08:36;;;;;;;;;;;2.90;73.10;;;;;;9180826;19;20250;-69
2023/04/03 05:11:44;;;;;;;;;;;2.90;73.10;;;;;;9183092;19;19946;-69
2023/04/03 05:14:51;;;;;;;;;;;2.90;73.10;;;;;;9183963;19;20337;-69
2023/04/03 05:17:57;;;;;;;;;;;2.80;73.10;;;;;;9184629;19;19919;-69
2023/04/03 05:21:01;;;;;;;;;;;2.80;73.10;;;;;;9179412;19;20308;-68
2023/04/03 05:24:09;;;;;;;;;;;2.80;73.10;;;;;;9183209;19;19918;-69
2023/04/03 05:27:17;;;;;;;;;;;2.70;73.10;;;;;;9180969;19;19915;-69
2023/04/03 05:30:28;;;;;;;;;;;2.70;73.10;;;;;;9181360;19;20265;-69
2023/04/03 05:33:33;;;;;;;;;;;2.70;73.10;;;;;;9181279;19;19919;-69
2023/04/03 05:36:39;;;;;;;;;;;2.70;73.10;;;;;;9180485;19;19930;-69
2023/04/03 05:39:45;;;;;;;;;;;2.60;73.10;;;;;;9178173;19;19978;-70
2023/04/03 05:42:53;;;;;;;;;;;2.70;73.20;;;;;;9176853;19;19923;-69
2023/04/03 05:46:00;;;;;;;;;;;2.60;73.20;;;;;;9180266;19;20275;-70
2023/04/03 05:49:08;;;;;;;;;;;2.60;73.20;;;;;;9180098;19;19911;-69
2023/04/03 05:52:19;;;;;;;;;;;2.60;73.20;;;;;;9179907;19;19914;-68
2023/04/03 05:55:25;;;;;;;;;;;2.60;73.30;;;;;;9182027;19;19929;-68
2023/04/03 05:58:31;;;;;;;;;;;2.60;73.20;;;;;;9179143;19;20344;-68
2023/04/03 06:01:37;;;;;;;;;;;2.60;73.30;;;;;;9177626;19;19923;-68
2023/04/03 06:04:41;;;;;;;;;;;2.50;73.20;;;;;;9181991;19;19926;-68
2023/04/03 06:07:49;;;;;;;;;;;2.60;73.30;;;;;;9177994;19;19915;-68
2023/04/03 06:10:57;;;;;;;;;;;2.60;73.40;;;;;;9180581;19;19921;-68
2023/04/03 06:14:04;;;;;;;;;;;2.60;73.30;;;;;;9169781;19;19930;-68
2023/04/03 06:17:08;;;;;;;;;;;2.60;73.40;;;;;;9170733;19;19923;-68
2023/04/03 06:20:15;;;;;;;;;;;2.70;73.40;;;;;;9170580;19;19922;-68
2023/04/03 06:23:19;;;;;;;;;;;2.70;73.40;;;;;;9172009;19;19911;-70
2023/04/03 06:26:24;;;;;;;;;;;2.80;73.50;;;;;;9172252;19;19929;-69
2023/04/03 06:29:31;;;;;;;;;;;2.80;73.40;;;;;;9169962;19;19930;-70
2023/04/03 06:32:36;;;;;;;;;;;2.90;73.60;;;;;;9172657;19;19914;-70
2023/04/03 06:35:40;;;;;;;;;;;3.00;73.60;;;;;;9172418;19;20582;-69
2023/04/03 06:38:47;;;;;;;;;;;3.10;73.60;;;;;;9179825;19;19939;-71
2023/04/03 06:41:51;;;;;;;;;;;3.10;73.60;;;;;;9176123;19;19918;-69
2023/04/03 06:45:07;;;;;;;;;;;3.20;73.60;;;;;;9173607;19;20285;-71
2023/04/03 06:48:11;;;;;;;;;;;3.30;73.60;;;;;;9178210;19;19990;-71
2023/04/03 06:51:20;;;;;;;;;;;3.40;73.70;;;;;;9179503;19;19918;-71
2023/04/03 06:54:25;;;;;;;;;;;3.50;73.70;;;;;;9179196;19;19918;-71
2023/04/03 06:57:31;;;;;;;;;;;3.60;73.60;;;;;;9178512;19;19914;-70
2023/04/03 07:00:37;;;;;;;;;;;3.70;73.60;;;;;;9177794;19;19943;-70
2023/04/03 07:03:43;;;;;;;;;;;3.80;73.60;;;;;;9178083;19;19922;-70
2023/04/03 07:06:46;;;;;;;;;;;3.90;73.60;;;;;;9179182;19;19930;-71
2023/04/03 07:09:52;;;;;;;;;;;4.00;73.60;;;;;;9174474;19;20194;-69
2023/04/03 07:12:56;;;;;;;;;;;4.10;73.70;;;;;;9177536;19;19918;-68
2023/04/03 07:16:05;;;;;;;;;;;4.20;73.60;;;;;;9171246;19;20309;-69
2023/04/03 07:19:10;;;;;;;;;;;4.30;73.60;;;;;;9167923;19;20855;-69
2023/04/03 07:22:16;;;;;;;;;;;4.40;73.60;;;;;;9166177;19;20309;-69
2023/04/03 07:25:20;;;;;;;;;;;4.50;73.60;;;;;;9171143;19;19926;-69
2023/04/03 07:28:26;;;;;;;;;;;4.60;73.60;;;;;;9171790;19;19919;-69
2023/04/03 07:31:33;;;;;;;;;;;4.70;73.60;;;;;;9172976;19;19923;-69
2023/04/03 07:34:39;;;;;;;;;;;4.70;73.50;;;;;;9167260;19;19919;-70
2023/04/03 07:37:43;;;;;;;;;;;4.80;73.50;;;;;;9173314;19;20317;-70
2023/04/03 07:40:50;;;;;;;;;;;4.90;73.50;;;;;;9173685;19;19911;-70
2023/04/03 07:43:54;;;;;;;;;;;5.00;73.60;;;;;;9172450;19;19926;-71
2023/04/03 07:47:02;;;;;;;;;;;5.10;73.50;;;;;;9177526;19;19915;-71
2023/04/03 07:50:07;;;;;;;;;;;5.20;73.50;;;;;;9177557;19;20363;-70
2023/04/03 07:53:12;;;;;;;;;;;5.30;73.50;;;;;;9167056;19;19914;-70
2023/04/03 07:56:16;;;;;;;;;;;5.40;73.60;;;;;;9169911;19;20345;-70
2023/04/03 07:59:22;;;;;;;;;;;5.50;73.60;;;;;;9172035;19;19935;-70
2023/04/03 08:02:28;;;;;;;;;;;5.70;73.60;;;;;;9169237;19;19925;-70
2023/04/03 08:05:38;;;;;;;;;;;5.80;73.50;;;;;;9175483;19;19918;-70
2023/04/03 08:08:42;;;;;;;;;;;5.90;73.50;;;;;;9173021;19;19923;-71
2023/04/03 08:11:48;;;;;;;;;;;6.10;73.50;;;;;;9166647;19;19918;-72
2023/04/03 08:14:52;;;;;;;;;;;6.30;73.50;;;;;;9173908;19;19918;-71
2023/04/03 08:18:01;;;;;;;;;;;6.40;73.40;;;;;;9171380;19;20337;-72
2023/04/03 08:21:07;;;;;;;;;;;6.60;73.40;;;;;;9168323;19;19930;-70
2023/04/03 08:24:13;;;;;;;;;;;6.70;73.30;;;;;;9173083;19;19918;-71
2023/04/03 08:27:17;;;;;;;;;;;6.90;73.30;;;;;;9168857;19;19941;-70
2023/04/03 08:30:23;;;;;;;;;;;7.10;73.20;;;;;;9170450;19;19911;-68
2023/04/03 08:33:29;;;;;;;;;;;7.30;73.20;;;;;;9170691;19;19922;-70
2023/04/03 08:36:35;;;;;;;;;;;7.40;73.10;;;;;;9171681;19;19925;-70
2023/04/03 08:39:39;;;;;;;;;;;7.60;73.00;;;;;;9181309;19;20257;-70
2023/04/03 08:42:51;;;;;;;;;;;7.70;72.90;;;;;;9172314;19;20303;-69
2023/04/03 08:45:56;;;;;;;;;;;7.90;72.90;;;;;;9183963;19;20010;-70
2023/04/03 08:49:05;;;;;;;;;;;8.10;72.90;;;;;;9179059;19;19926;-70
2023/04/03 08:52:14;;;;;;;;;;;8.20;72.70;;;;;;9174923;19;20269;-70
2023/04/03 08:55:25;;;;;;;;;;;8.30;72.60;;;;;;9175044;19;19922;-69
2023/04/03 08:58:30;;;;;;;;;;;8.50;72.70;;;;;;9170305;19;21111;-69
2023/04/03 09:01:37;;;;;;;;;;;8.70;72.60;;;;;;9170640;19;19942;-70
2023/04/03 09:04:43;;;;;;;;;;;8.80;72.50;;;;;;9174322;19;19948;-69
2023/04/03 09:07:52;;;;;;;;;;;9.00;72.40;;;;;;9173691;19;19930;-68
2023/04/03 09:11:01;;;;;;;;;;;9.20;72.40;;;;;;9178655;19;19989;-69
2023/04/03 09:14:13;;;;;;;;;;;9.30;72.30;;;;;;9170944;19;20704;-68
2023/04/03 09:17:22;;;;;;;;;;;9.50;72.20;;;;;;9173780;19;19951;-70
2023/04/03 09:20:37;;;;;;;;;;;9.60;72.20;;;;;;9171573;19;20277;-69
2023/04/03 09:23:45;;;;;;;;;;;9.70;72.10;;;;;;9174569;19;20048;-68
2023/04/03 09:26:55;;;;;;;;;;;9.90;72.00;;;;;;9173444;19;19930;-69
2023/04/03 09:30:00;;;;;;;;;;;10.00;71.90;;;;;;9180813;19;19922;-68
2023/04/03 09:33:06;;;;;;;;;;;10.10;71.90;;;;;;9172167;19;20242;-71
2023/04/03 09:36:12;;;;;;;;;;;10.20;71.80;;;;;;9171700;19;21001;-68
2023/04/03 09:39:20;;;;;;;;;;;10.40;71.70;;;;;;9175113;19;19915;-69
2023/04/03 09:42:25;;;;;;;;;;;10.50;71.70;;;;;;9169999;19;19927;-69
2023/04/03 09:45:32;;;;;;;;;;;10.60;71.60;;;;;;9165822;19;20229;-68
2023/04/03 09:48:36;;;;;;;;;;;10.80;71.60;;;;;;9172815;19;19910;-68
2023/04/03 09:51:45;;;;;;;;;;;10.90;71.50;;;;;;9172385;19;20348;-68
2023/04/03 09:54:48;;;;;;;;;;;11.10;71.50;;;;;;9169649;19;19919;-69
2023/04/03 09:57:55;;;;;;;;;;;11.20;71.30;;;;;;9168199;19;19933;-69
2023/04/03 10:01:00;;;;;;;;;;;11.30;71.30;;;;;;9166324;19;19915;-67
2023/04/03 10:04:07;;;;;;;;;;;11.40;71.20;;;;;;9166876;19;20252;-70
2023/04/03 10:07:27;;;;;;;;;;;11.50;71.00;;;;;;9167717;19;19919;-68
2023/04/03 10:10:35;;;;;;;;;;;11.60;71.10;;;;;;9167630;19;19917;-67
2023/04/03 10:13:52;;;;;;;;;;;11.60;71.00;;;;;;9167459;19;19922;-67
2023/04/03 10:17:00;;;;;;;;;;;11.70;70.90;;;;;;9168905;19;20342;-67
2023/04/03 10:20:08;;;;;;;;;;;11.80;70.90;;;;;;9171548;19;19931;-69
2023/04/03 10:23:20;;;;;;;;;;;11.90;70.80;;;;;;9168799;19;19925;-69
2023/04/03 10:26:31;;;;;;;;;;;12.00;70.70;;;;;;9172101;19;19934;-68
2023/04/03 10:29:39;;;;;;;;;;;12.10;70.70;;;;;;9170087;19;19922;-69
2023/04/03 10:32:50;;;;;;;;;;;12.10;70.50;;;;;;9170588;19;19919;-72
2023/04/03 10:36:02;;;;;;;;;;;12.10;70.40;;;;;;9168546;19;19922;-73
2023/04/03 10:39:10;;;;;;;;;;;12.20;70.40;;;;;;9169377;19;20707;-72
2023/04/03 10:42:21;;;;;;;;;;;12.20;70.30;;;;;;9164265;19;20499;-73
2023/04/03 10:45:28;;;;;;;;;;;12.20;70.30;;;;;;9160558;19;21192;-73
2023/04/03 10:48:42;;;;;;;;;;;12.20;70.10;;;;;;9168459;19;19923;-73
2023/04/03 10:51:47;;;;;;;;;;;12.30;70.00;;;;;;9167363;19;19923;-73
2023/04/03 10:54:58;;;;;;;;;;;12.20;69.90;;;;;;9170005;19;19911;-72
2023/04/03 10:58:04;;;;;;;;;;;12.20;69.70;;;;;;9175463;19;19919;-73
2023/04/03 11:01:11;;;;;;;;;;;12.20;69.80;;;;;;9170092;19;20325;-72
2023/04/03 11:04:17;;;;;;;;;;;12.20;69.80;;;;;;9167885;19;20281;-72
2023/04/03 11:07:24;;;;;;;;;;;12.20;69.80;;;;;;9168582;19;19919;-72
2023/04/03 11:10:37;;;;;;;;;;;12.20;69.80;;;;;;9171097;19;19915;-72
2023/04/03 11:13:48;;;;;;;;;;;12.20;69.70;;;;;;9170502;19;19926;-71
2023/04/03 11:16:56;;;;;;;;;;;12.10;69.50;;;;;;9174392;19;19923;-72
2023/04/03 11:20:06;;;;;;;;;;;12.10;69.40;;;;;;9167776;19;19934;-72
2023/04/03 11:23:15;;;;;;;;;;;12.10;69.50;;;;;;9165785;19;19986;-72
2023/04/03 11:26:22;;;;;;;;;;;12.10;69.60;;;;;;9169577;19;19934;-72
2023/04/03 11:29:31;;;;;;;;;;;12.10;69.50;;;;;;9167764;19;19990;-71
2023/04/03 11:32:53;;;;;;;;;;;12.10;69.40;;;;;;9174254;19;19919;-72
2023/04/03 11:36:00;;;;;;;;;;;12.10;69.40;;;;;;9177783;19;20079;-71
2023/04/03 11:39:11;;;;;;;;;;;12.20;69.50;;;;;;9186132;19;19925;-71
2023/04/03 11:42:17;;;;;;;;;;;12.20;69.50;;;;;;9183065;19;19918;-71
2023/04/03 11:45:31;;;;;;;;;;;12.20;69.30;;;;;;9179119;19;19934;-72
2023/04/03 11:48:46;;;;;;;;;;;12.30;69.20;;;;;;9185755;19;19934;-71
2023/04/03 11:51:52;;;;;;;;;;;12.20;68.90;;;;;;9185859;19;19911;-71
2023/04/03 11:54:56;;;;;;;;;;;12.20;69.00;;;;;;9185608;19;20259;-71
2023/04/03 11:58:13;;;;;;;;;;;12.20;69.00;;;;;;9186012;19;19933;-71
2023/04/03 12:01:33;;;;;;;;;;;12.10;68.90;;;;;;9184151;19;19918;-71
2023/04/03 12:04:41;;;;;;;;;;;12.10;68.80;;;;;;9183988;19;19922;-70
2023/04/03 12:07:45;;;;;;;;;;;12.00;68.70;;;;;;9185622;19;20425;-71
2023/04/03 12:11:06;;;;;;;;;;;12.00;68.70;;;;;;9177007;19;19930;-71
2023/04/03 12:14:15;;;;;;;;;;;11.90;68.70;;;;;;9184411;19;20246;-74
2023/04/03 12:17:24;;;;;;;;;;;11.90;68.80;;;;;;9181351;19;19918;-71
2023/04/03 12:20:43;;;;;;;;;;;11.80;68.60;;;;;;9175084;19;19919;-71
2023/04/03 12:24:02;;;;;;;;;;;11.80;68.60;;;;;;9185474;19;19930;-71
2023/04/03 12:27:24;;;;;;;;;;;11.70;68.50;;;;;;9184855;19;20312;-71
2023/04/03 12:30:31;;;;;;;;;;;11.70;68.50;;;;;;9184835;19;20014;-71
2023/04/03 12:33:43;;;;;;;;;;;11.60;68.40;;;;;;9180370;19;20363;-71
2023/04/03 12:36:56;;;;;;;;;;;11.60;68.40;;;;;;9185741;19;19919;-70
2023/04/03 12:40:10;;;;;;;;;;;11.60;68.40;;;;;;9182471;19;19915;-71
2023/04/03 12:43:26;;;;;;;;;;;11.60;68.40;;;;;;9175035;19;20018;-71
2023/04/03 12:46:37;;;;;;;;;;;11.60;68.50;;;;;;9183168;19;19923;-71
2023/04/03 12:49:44;;;;;;;;;;;11.60;68.50;;;;;;9182248;19;19923;-71
2023/04/03 12:52:51;;;;;;;;;;;11.60;68.40;;;;;;9183811;19;20301;-71
2023/04/03 12:56:20;;;;;;;;;;;11.60;68.30;;;;;;9181556;19;19925;-71
2023/04/03 12:59:25;;;;;;;;;;;11.60;68.30;;;;;;9183892;19;19928;-71
2023/04/03 13:02:33;;;;;;;;;;;11.60;68.30;;;;;;9181416;19;19922;-71
2023/04/03 13:05:37;;;;;;;;;;;11.60;68.30;;;;;;9183286;19;19915;-71
2023/04/03 13:08:50;;;;;;;;;;;11.60;68.20;;;;;;9177465;19;19930;-65
2023/04/03 13:11:58;;;;;;;;;;;11.60;68.20;;;;;;9173110;19;20268;-65
2023/04/03 13:15:13;;;;;;;;;;;11.60;68.10;;;;;;9173919;19;19961;-65
2023/04/03 13:18:28;;;;;;;;;;;11.60;68.10;;;;;;9173849;19;19946;-64
2023/04/03 13:21:35;;;;;;;;;;;11.60;68.10;;;;;;9173339;19;19914;-65
2023/04/03 13:24:40;;;;;;;;;;;11.50;68.10;;;;;;9175910;19;19922;-65
2023/04/03 13:27:48;;;;;;;;;;;11.50;68.10;;;;;;9179051;19;20269;-64
2023/04/03 13:31:03;;;;;;;;;;;11.50;68.10;;;;;;9175513;19;20276;-63
2023/04/03 13:34:13;;;;;;;;;;;11.40;68.00;;;;;;9178930;19;20340;-64
2023/04/03 13:37:25;;;;;;;;;;;11.40;68.00;;;;;;9179063;19;20355;-65
2023/04/03 13:40:31;;;;;;;;;;;11.50;68.00;;;;;;9177998;19;19922;-64
2023/04/03 13:43:52;;;;;;;;;;;11.50;68.00;;;;;;9173861;19;20344;-64
2023/04/03 13:47:16;;;;;;;;;;;11.40;67.90;;;;;;9178855;19;19925;-64
2023/04/03 13:50:22;;;;;;;;;;;11.40;67.80;;;;;;9178812;19;19956;-64
2023/04/03 13:53:29;;;;;;;;;;;11.50;67.90;;;;;;9172394;19;20003;-64
2023/04/03 13:56:35;;;;;;;;;;;11.50;67.90;;;;;;9176937;19;19922;-65
2023/04/03 13:59:44;;;;;;;;;;;11.50;67.80;;;;;;9175100;19;19918;-64
2023/04/03 14:02:50;;;;;;;;;;;11.50;67.80;;;;;;9171321;19;20190;-63
2023/04/03 14:05:56;;;;;;;;;;;11.50;67.70;;;;;;9171106;19;19923;-63
2023/04/03 14:09:00;;;;;;;;;;;11.50;67.70;;;;;;9172002;19;19915;-64
2023/04/03 14:12:08;;;;;;;;;;;11.50;67.70;;;;;;9174321;19;20621;-63
2023/04/03 14:15:26;;;;;;;;;;;11.50;67.60;;;;;;9175850;19;19982;-64
2023/04/03 14:18:31;;;;;;;;;;;11.50;67.60;;;;;;9176025;19;19926;-64
2023/04/03 14:21:35;;;;;;;;;;;11.50;67.50;;;;;;9171589;19;19919;-64
2023/04/03 14:24:42;;;;;;;;;;;11.40;67.40;;;;;;9170911;19;19922;-64
2023/04/03 14:27:47;;;;;;;;;;;11.40;67.40;;;;;;9173961;19;19914;-64
2023/04/03 14:30:55;;;;;;;;;;;11.40;67.40;;;;;;9180280;19;20018;-64
2023/04/03 14:33:59;;;;;;;;;;;11.40;67.40;;;;;;9177102;19;19922;-64
2023/04/03 14:37:07;;;;;;;;;;;11.40;67.30;;;;;;9179832;19;20404;-63
2023/04/03 14:40:14;;;;;;;;;;;11.30;67.30;;;;;;9180357;19;19915;-63
2023/04/03 14:43:21;;;;;;;;;;;11.30;67.30;;;;;;9172336;19;19929;-64
2023/04/03 14:46:28;;;;;;;;;;;11.30;67.30;;;;;;9178994;19;19930;-63
2023/04/03 14:49:48;;;;;;;;;;;11.30;67.20;;;;;;9178758;19;19918;-64
2023/04/03 14:52:54;;;;;;;;;;;11.20;67.20;;;;;;9179404;19;19954;-63
2023/04/03 14:56:00;;;;;;;;;;;11.20;67.20;;;;;;9179354;19;20276;-63
2023/04/03 14:59:04;;;;;;;;;;;11.20;67.20;;;;;;9179813;19;19911;-64
2023/04/03 15:02:22;;;;;;;;;;;11.10;67.20;;;;;;9178031;19;20357;-63
2023/04/03 15:05:26;;;;;;;;;;;11.10;67.20;;;;;;9178490;19;19918;-64
2023/04/03 15:08:32;;;;;;;;;;;11.10;67.10;;;;;;9163534;19;19926;-63
2023/04/03 15:11:36;;;;;;;;;;;11.10;67.10;;;;;;9171904;19;19934;-64
2023/04/03 15:14:42;;;;;;;;;;;11.00;67.10;;;;;;9171638;19;19922;-64
2023/04/03 15:18:02;;;;;;;;;;;11.00;67.10;;;;;;9161315;19;19925;-65
2023/04/03 15:21:08;;;;;;;;;;;10.90;67.00;;;;;;9158924;19;19915;-64
2023/04/03 15:24:13;;;;;;;;;;;10.90;67.00;;;;;;9160573;19;19930;-64
2023/04/03 15:27:19;;;;;;;;;;;10.90;67.00;;;;;;9160958;19;19954;-65
2023/04/03 15:30:22;;;;;;;;;;;10.90;67.00;;;;;;9161385;19;20298;-64
2023/04/03 15:33:30;;;;;;;;;;;10.90;67.60;;;;;;9163744;19;19918;-65
2023/04/03 15:36:34;;;;;;;;;;;10.90;66.90;;;;;;9163998;19;19983;-64
2023/04/03 15:39:41;;;;;;;;;;;10.90;66.90;;;;;;9166880;19;20602;-64
2023/04/03 15:42:45;;;;;;;;;;;10.90;66.90;;;;;;9157935;19;20370;-64
2023/04/03 15:45:51;;;;;;;;;;;10.80;66.90;;;;;;9166741;19;19922;-65
2023/04/03 15:49:00;;;;;;;;;;;10.80;66.90;;;;;;9170132;19;19926;-64
2023/04/03 15:52:07;;;;;;;;;;;10.80;66.80;;;;;;9162289;19;19944;-64
2023/04/03 15:55:11;;;;;;;;;;;10.80;66.80;;;;;;9164030;19;19927;-65
2023/04/03 15:58:18;;;;;;;;;;;10.80;66.90;;;;;;9164373;19;20240;-64
2023/04/03 16:01:40;;;;;;;;;;;10.70;66.80;;;;;;9162375;19;19926;-64
2023/04/03 16:04:48;;;;;;;;;;;10.70;66.80;;;;;;9164392;19;19929;-64
2023/04/03 16:07:52;;;;;;;;;;;10.70;66.70;;;;;;9161765;19;20368;-65
2023/04/03 16:10:58;;;;;;;;;;;10.70;66.70;;;;;;9164191;19;20313;-65
2023/04/03 16:14:02;;;;;;;;;;;10.70;66.70;;;;;;9162171;19;19974;-64
2023/04/03 16:17:08;;;;;;;;;;;10.60;67.30;;;;;;9165528;19;19915;-65
2023/04/03 16:20:14;;;;;;;;;;;10.70;66.70;;;;;;9164754;19;19918;-64
2023/04/03 16:23:20;;;;;;;;;;;10.60;66.60;;;;;;9168274;19;19918;-65
2023/04/03 16:26:25;;;;;;;;;;;10.60;67.20;;;;;;9175556;19;19926;-64
2023/04/03 16:29:31;;;;;;;;;;;10.60;66.60;;;;;;9173945;19;19926;-64
2023/04/03 16:32:35;;;;;;;;;;;10.60;66.60;;;;;;9174440;19;20497;-64
2023/04/03 16:35:43;;;;;;;;;;;10.50;66.50;;;;;;9173337;19;19922;-65
2023/04/03 16:38:47;;;;;;;;;;;10.50;66.50;;;;;;9173949;19;19926;-64
2023/04/03 16:41:53;;;;;;;;;;;10.40;66.40;;;;;;9171160;19;19923;-64
2023/04/03 16:44:58;;;;;;;;;;;10.40;66.50;;;;;;9166419;19;19923;-64
2023/04/03 16:48:04;;;;;;;;;;;10.40;66.50;;;;;;9173785;19;19930;-65
2023/04/03 16:51:10;;;;;;;;;;;10.40;66.50;;;;;;9173346;19;19982;-65
2023/04/03 16:54:16;;;;;;;;;;;10.40;66.50;;;;;;9173428;19;19934;-64
2023/04/03 16:57:20;;;;;;;;;;;10.30;66.40;;;;;;9172991;19;19955;-69
2023/04/03 17:00:26;;;;;;;;;;;10.30;66.40;;;;;;9173110;19;19922;-64
2023/04/03 17:03:30;;;;;;;;;;;10.20;66.40;;;;;;9170603;19;19918;-64
2023/04/03 17:06:38;;;;;;;;;;;10.20;66.40;;;;;;9172577;19;19927;-65
2023/04/03 17:09:42;;;;;;;;;;;10.20;66.40;;;;;;9169133;19;20356;-64
2023/04/03 17:12:48;;;;;;;;;;;10.20;66.30;;;;;;9173111;19;19998;-64
2023/04/03 17:15:52;;;;;;;;;;;10.10;66.30;;;;;;9168953;19;20372;-63
2023/04/03 17:19:00;;;;;;;;;;;10.00;66.20;;;;;;9170143;19;19925;-64
2023/04/03 17:22:06;;;;;;;;;;;10.00;66.20;;;;;;9163658;19;19922;-64
2023/04/03 17:25:12;;;;;;;;;;;9.90;66.30;;;;;;9165119;19;19921;-64
2023/04/03 17:28:16;;;;;;;;;;;9.90;66.30;;;;;;9168206;19;19919;-64
2023/04/03 17:31:22;;;;;;;;;;;9.80;66.20;;;;;;9161787;19;19911;-64
2023/04/03 17:34:26;;;;;;;;;;;9.80;66.20;;;;;;9161900;19;19923;-65
2023/04/03 17:37:34;;;;;;;;;;;9.80;66.20;;;;;;9161558;19;19953;-64
2023/04/03 17:40:38;;;;;;;;;;;9.70;66.20;;;;;;9169973;19;19919;-64
2023/04/03 17:43:44;;;;;;;;;;;9.70;66.20;;;;;;9157558;19;20308;-64
2023/04/03 17:46:47;;;;;;;;;;;9.70;66.20;;;;;;9172473;19;19931;-65
2023/04/03 17:49:53;;;;;;;;;;;9.60;66.10;;;;;;9170823;19;19919;-65
2023/04/03 17:52:59;;;;;;;;;;;9.60;66.10;;;;;;9170327;19;20032;-64
2023/04/03 17:56:09;;;;;;;;;;;9.60;66.10;;;;;;9169586;19;20265;-64
2023/04/03 17:59:13;;;;;;;;;;;9.50;66.10;;;;;;9170655;19;19927;-65
2023/04/03 18:02:21;;;;;;;;;;;9.50;66.10;;;;;;9167199;19;20344;-64
2023/04/03 18:05:28;;;;;;;;;;;9.50;66.10;;;;;;9169824;19;19918;-64
2023/04/03 18:08:37;;;;;;;;;;;9.40;66.00;;;;;;9167657;19;19914;-65
2023/04/03 18:11:41;;;;;;;;;;;9.30;66.00;;;;;;9166204;19;19927;-64
2023/04/03 18:14:48;;;;;;;;;;;9.30;66.00;;;;;;9168565;19;19918;-65
2023/04/03 18:17:55;;;;;;;;;;;9.30;66.00;;;;;;9168096;19;19919;-64